SILO ALERT LOG
| Silo ID | Alert Type | Alert Message | Silo Type | Points | Depth (mm) | Strength | Temperature (°C) | Humidity (%) | Height (mm) | Volume (㎥) | Weight (t) | Flag | Time |
|---|---|---|---|---|---|---|---|---|---|---|---|---|---|
| DJSSD09 | Temperature | 온도센서 측정값이 0도 미만 | 평 | 123 | 2871 | 3608 | -45.4 | 0 | 4808 | 669.24 | 423.094 | 11 | 2024-01-10 08:39:32.000 |
| DJSAD12 | Humidity | 습도센서 측정값이 80% 초과 | 평 | 0 | 7700 | 0 | 2.2 | 86.7 | -120 | -17.075 | 0 | 31 | 2024-01-10 08:39:32.000 |
| DJDJD01 | Humidity | 습도센서 측정값이 80% 초과 | 평 | 100 | 7604 | 3901 | 0.3 | 81 | 75 | 9.198 | 5.815 | 0 | 2024-01-10 08:39:31.000 |
| DJSAD11 | Humidity | 습도센서 측정값이 80% 초과 | 평 | 287 | 1510 | 13179 | 0.9 | 80.7 | 6069 | 863.622 | 545.982 | 11 | 2024-01-10 08:39:31.000 |
| DJSAD07 | Humidity | 습도센서 측정값이 80% 초과 | 평 | 221 | 2604 | 3188 | 2.9 | 86.2 | 4975 | 708.034 | 447.619 | 11 | 2024-01-10 08:39:31.000 |
| DJSSD11 | Temperature | 온도센서 측정값이 0도 미만 | 호퍼 | 444 | 7395 | 148 | -3.1 | 77.5 | 3834 | 28.776 | 15.683 | 11 | 2024-01-10 08:39:31.000 |
| DJHNR11 | Temperature | 온도센서 측정값이 0도 미만 | 호퍼 | 118 | 1890 | 2583 | -3.8 | 74.4 | 8489 | 129.161 | 81.656 | 11 | 2024-01-10 08:39:31.000 |
| DJDJD04 | Humidity | 습도센서 측정값이 80% 초과 | 평 | 279 | 4203 | 4457 | 2.7 | 81.4 | 3476 | 421.147 | 266.249 | 11 | 2024-01-10 08:39:31.000 |
| DJHNR14 | Temperature | 온도센서 측정값이 0도 미만 | 호퍼 | 26 | 2960 | 4506 | -3.2 | 72.7 | 7419 | 106.094 | 67.073 | 11 | 2024-01-10 08:39:30.000 |
| DJSAD17 | Humidity | 습도센서 측정값이 80% 초과 | 평 | 443 | 3091 | 4993 | 2.8 | 80.7 | 4488 | 446.932 | 282.551 | 0 | 2024-01-10 08:39:30.000 |
| DJSAD18 | Humidity | 습도센서 측정값이 80% 초과 | 평 | 115 | 1487 | 5792 | 3.5 | 80.8 | 6092 | 606.694 | 383.552 | 11 | 2024-01-10 08:39:30.000 |
| DJHNR04 | Humidity | 습도센서 측정값이 80% 초과 | 호퍼 | 0 | 15500 | 5179 | 1.6 | 80.6 | -119 | 0 | 0 | 29 | 2024-01-10 08:39:30.000 |
| DJSAD16 | Humidity | 습도센서 측정값이 80% 초과 | 평 | 85 | 6275 | 3422 | 3.1 | 80.7 | 1304 | 129.868 | 82.103 | 11 | 2024-01-10 08:39:30.000 |
| DJHNR13 | Temperature | 온도센서 측정값이 0도 미만 | 호퍼 | 49 | 450 | 4975 | -2.1 | 78 | 9929 | 160.228 | 101.296 | 29 | 2024-01-10 08:39:29.000 |
| DJSSD12 | Temperature | 온도센서 상태 이상 | 호퍼 | 0 | 11350 | 0 | -999 | -999 | -120 | 0 | 0 | 31 | 2024-01-10 08:39:24.000 |
| DJHNR12 | Temperature | 온도센서 측정값이 0도 미만 | 호퍼 | 0 | 10500 | 0 | -3.2 | 81.4 | -120 | 0 | 0 | 31 | 2024-01-10 08:39:23.000 |
| DJHNR12 | Humidity | 습도센서 측정값이 80% 초과 | 호퍼 | 0 | 10500 | 0 | -3.2 | 81.4 | -120 | 0 | 0 | 31 | 2024-01-10 08:39:23.000 |
| DJHNR03 | Temperature | 온도센서 상태 이상 | 호퍼 | 0 | 15500 | 0 | -999 | -999 | -119 | 0 | 0 | 31 | 2024-01-10 08:39:23.000 |
| DJSAD03 | Humidity | 습도센서 측정값이 80% 초과 | 평 | 445 | 1705 | 6121 | 1.8 | 84.5 | 7074 | 292.84 | 185.133 | 0 | 2024-01-10 07:39:40.000 |
| DJSAD02 | Humidity | 습도센서 측정값이 80% 초과 | 평 | 377 | 1140 | 4275 | 1.8 | 87.2 | 7639 | 316.254 | 199.936 | 11 | 2024-01-10 07:39:39.000 |
[첫 페이지] [10023] [10024] [10025] [10026] 10027 [10028] [10029] [10030] [10031] [마지막 페이지]